createdAt,value
2022-09-14T00:01:25.192Z,22.40
2022-09-14T00:03:58.583Z,22.23
2022-09-14T00:06:25.834Z,22.29
2022-09-14T00:08:54.503Z,22.18
2022-09-14T00:11:22.783Z,21.75
2022-09-14T00:13:49.989Z,22.12
2022-09-14T00:16:22.950Z,22.08
2022-09-14T00:18:54.224Z,22.06
2022-09-14T00:21:21.209Z,21.84
2022-09-14T00:23:48.044Z,21.96
2022-09-14T00:26:17.719Z,21.65
2022-09-14T00:28:46.838Z,21.84
2022-09-14T00:31:13.978Z,21.91
2022-09-14T00:33:45.046Z,21.73
2022-09-14T00:36:14.999Z,21.88
2022-09-14T00:38:42.507Z,22.02
2022-09-14T00:41:17.034Z,21.87
2022-09-14T00:44:27.677Z,21.76
2022-09-14T00:46:56.871Z,21.40
2022-09-14T00:49:35.987Z,21.51
2022-09-14T00:52:11.092Z,21.40
2022-09-14T00:54:50.104Z,21.72
2022-09-14T00:57:18.001Z,21.79
2022-09-14T00:59:47.119Z,21.38
2022-09-14T01:02:17.049Z,21.66
2022-09-14T01:04:44.358Z,21.66
2022-09-14T01:07:29.745Z,21.72
2022-09-14T01:10:08.238Z,21.69
2022-09-14T01:12:51.437Z,21.59
2022-09-14T01:15:27.330Z,21.82
2022-09-14T01:18:21.141Z,21.94
2022-09-14T01:20:56.750Z,21.99
2022-09-14T01:23:44.701Z,22.02
2022-09-14T01:26:45.138Z,21.88
2022-09-14T01:29:34.915Z,21.59
2022-09-14T01:32:08.930Z,21.71
2022-09-14T01:34:51.943Z,21.79
2022-09-14T01:37:24.212Z,21.85
2022-09-14T01:39:56.596Z,21.88
2022-09-14T01:42:26.470Z,21.95
2022-09-14T01:44:56.936Z,22.01
2022-09-14T01:47:28.550Z,22.00
2022-09-14T01:50:06.181Z,21.74
2022-09-14T01:52:43.473Z,21.65
2022-09-14T01:55:16.699Z,21.48
2022-09-14T01:58:00.220Z,21.19
2022-09-14T02:00:28.128Z,21.03
2022-09-14T02:03:00.573Z,20.90
2022-09-14T02:05:39.081Z,21.05
2022-09-14T02:08:05.454Z,20.98
2022-09-14T02:10:32.521Z,20.92
2022-09-14T02:12:58.894Z,20.83
2022-09-14T02:15:28.168Z,20.37
2022-09-14T02:17:54.762Z,20.88
2022-09-14T02:20:34.037Z,20.88
2022-09-14T02:23:00.658Z,20.79
2022-09-14T02:25:27.093Z,20.89
2022-09-14T02:27:53.501Z,20.87
2022-09-14T02:30:20.741Z,20.49
2022-09-14T02:33:12.224Z,20.83
2022-09-14T02:35:45.155Z,20.45
2022-09-14T02:38:21.836Z,20.71
2022-09-14T02:41:37.107Z,20.63
2022-09-14T02:44:25.988Z,20.72
2022-09-14T02:47:14.074Z,20.70
2022-09-14T02:49:54.315Z,20.88
2022-09-14T02:52:47.127Z,20.70
2022-09-14T02:55:19.035Z,20.68
2022-09-14T02:58:07.754Z,20.89
2022-09-14T03:00:41.223Z,20.93
2022-09-14T03:03:10.378Z,20.95
2022-09-14T03:05:37.206Z,20.95
2022-09-14T03:08:04.260Z,20.76
2022-09-14T03:10:31.680Z,20.19
2022-09-14T03:12:58.810Z,20.58
2022-09-14T03:15:26.458Z,20.56
2022-09-14T03:17:53.427Z,20.62
2022-09-14T03:20:22.800Z,20.70
2022-09-14T03:22:49.319Z,20.68
2022-09-14T03:25:15.947Z,19.76
2022-09-14T03:27:42.318Z,20.65
2022-09-14T03:30:09.294Z,20.53
2022-09-14T03:32:35.659Z,20.48
2022-09-14T03:35:02.329Z,20.11
2022-09-14T03:37:28.660Z,20.50
2022-09-14T03:39:55.143Z,20.71
2022-09-14T03:42:21.555Z,20.89
2022-09-14T03:44:47.946Z,20.67
2022-09-14T03:47:14.244Z,20.69
2022-09-14T03:49:40.585Z,20.60
2022-09-14T03:52:07.717Z,20.13
2022-09-14T03:54:34.045Z,20.75
2022-09-14T03:57:00.511Z,20.57
2022-09-14T03:59:26.859Z,19.72
2022-09-14T04:01:53.334Z,20.22
2022-09-14T04:04:19.671Z,19.79
2022-09-14T04:06:46.077Z,20.20
2022-09-14T04:09:12.409Z,19.97
2022-09-14T04:11:38.724Z,19.53
2022-09-14T04:14:05.762Z,20.14
2022-09-14T04:16:32.227Z,19.97
2022-09-14T04:18:58.633Z,19.93
2022-09-14T04:21:26.205Z,19.83
2022-09-14T04:24:14.092Z,19.83
2022-09-14T04:26:40.696Z,19.72
2022-09-14T04:29:07.075Z,19.77
2022-09-14T04:31:33.645Z,19.93
2022-09-14T04:34:00.089Z,19.45
2022-09-14T04:36:30.148Z,19.71
2022-09-14T04:39:02.099Z,19.92
2022-09-14T04:41:29.646Z,19.69
2022-09-14T04:43:56.965Z,19.24
2022-09-14T04:46:26.864Z,19.86
2022-09-14T04:48:53.850Z,19.73
2022-09-14T04:51:23.439Z,19.61
2022-09-14T04:53:51.910Z,19.71
2022-09-14T04:56:20.166Z,19.62
2022-09-14T04:58:51.695Z,19.76
2022-09-14T05:01:21.159Z,19.67
2022-09-14T05:03:48.231Z,19.53
2022-09-14T05:06:24.174Z,19.63
2022-09-14T05:08:51.624Z,19.70
2022-09-14T05:11:21.241Z,19.11
2022-09-14T05:13:50.005Z,19.17
2022-09-14T05:16:26.264Z,19.48
2022-09-14T05:18:58.105Z,19.63
2022-09-14T05:21:25.009Z,19.48
2022-09-14T05:24:00.336Z,19.35
2022-09-14T05:26:28.322Z,19.02
2022-09-14T05:28:57.010Z,18.88
2022-09-14T05:31:24.328Z,19.38
2022-09-14T05:33:51.391Z,19.33
2022-09-14T05:36:17.944Z,19.43
2022-09-14T05:38:44.443Z,19.26
2022-09-14T05:41:12.967Z,19.34
2022-09-14T05:43:39.883Z,18.83
2022-09-14T05:46:11.182Z,19.19
2022-09-14T05:48:38.727Z,19.18
2022-09-14T05:51:16.442Z,19.15
2022-09-14T05:53:54.025Z,19.14
2022-09-14T05:56:23.033Z,19.36
2022-09-14T05:58:49.892Z,19.26
2022-09-14T06:01:22.127Z,19.13
2022-09-14T06:03:49.208Z,19.20
2022-09-14T06:06:18.039Z,19.19
2022-09-14T06:08:45.119Z,19.18
2022-09-14T06:11:14.883Z,19.11
2022-09-14T06:13:42.004Z,19.22
2022-09-14T06:16:12.912Z,19.04
2022-09-14T06:18:40.439Z,19.20
2022-09-14T06:21:09.596Z,19.21
2022-09-14T06:23:36.764Z,19.17
2022-09-14T06:26:05.140Z,19.22
2022-09-14T06:28:32.642Z,19.16
2022-09-14T06:30:59.039Z,18.56
2022-09-14T06:33:25.431Z,19.17
2022-09-14T06:36:00.452Z,19.26
2022-09-14T06:38:27.910Z,19.05
2022-09-14T06:40:59.572Z,19.19
2022-09-14T06:43:31.967Z,19.14
2022-09-14T06:46:10.934Z,19.16
2022-09-14T06:48:49.069Z,18.97
2022-09-14T06:51:24.494Z,19.19
2022-09-14T06:53:51.807Z,19.11
2022-09-14T06:56:18.544Z,18.94
2022-09-14T06:58:45.338Z,18.88
2022-09-14T07:01:14.956Z,19.17
2022-09-14T07:03:43.793Z,19.06
2022-09-14T07:06:13.767Z,19.10
2022-09-14T07:08:40.900Z,19.13
2022-09-14T07:11:08.788Z,19.16
2022-09-14T07:13:35.892Z,19.19
2022-09-14T07:16:05.652Z,19.00
2022-09-14T07:18:32.803Z,19.18
2022-09-14T07:21:19.187Z,19.25
2022-09-14T07:23:46.893Z,19.26
2022-09-14T07:26:14.473Z,19.21
2022-09-14T07:28:41.986Z,19.44
2022-09-14T07:31:22.221Z,19.19
2022-09-14T07:33:52.002Z,19.23
2022-09-14T07:36:18.509Z,19.29
2022-09-14T07:38:53.117Z,19.33
2022-09-14T07:41:25.584Z,18.76
2022-09-14T07:43:53.921Z,19.03
2022-09-14T07:46:21.383Z,19.11
2022-09-14T07:48:49.061Z,19.00
2022-09-14T07:51:16.010Z,19.07
2022-09-14T07:53:43.563Z,19.39
2022-09-14T07:56:11.587Z,18.93
2022-09-14T07:58:38.860Z,18.86
2022-09-14T08:01:11.868Z,19.21
2022-09-14T08:03:42.156Z,19.10
2022-09-14T08:06:15.081Z,19.00
2022-09-14T08:08:44.568Z,18.91
2022-09-14T08:11:35.126Z,19.04
2022-09-14T08:14:04.409Z,18.89
2022-09-14T08:16:32.411Z,19.00
2022-09-14T08:19:04.486Z,19.01
2022-09-14T08:21:32.523Z,18.84
2022-09-14T08:24:02.428Z,18.92
2022-09-14T08:26:29.281Z,18.79
2022-09-14T08:28:56.309Z,18.83
2022-09-14T08:31:27.138Z,18.46
2022-09-14T08:33:57.206Z,18.90
2022-09-14T08:36:25.111Z,18.44
2022-09-14T08:38:51.642Z,18.92
2022-09-14T08:41:37.849Z,18.54
2022-09-14T08:44:19.726Z,18.89
2022-09-14T08:46:54.750Z,18.90
2022-09-14T08:49:42.978Z,18.90
2022-09-14T08:52:23.046Z,18.94
2022-09-14T08:55:01.656Z,18.45
2022-09-14T08:57:37.901Z,18.97
2022-09-14T09:00:13.272Z,18.67
2022-09-14T09:03:15.070Z,19.09
2022-09-14T09:05:44.868Z,19.03
2022-09-14T09:09:32.836Z,18.83
2022-09-14T09:12:00.794Z,18.93
2022-09-14T09:14:35.695Z,18.85
2022-09-14T09:17:10.335Z,19.30
2022-09-14T09:19:51.799Z,18.78
2022-09-14T09:22:22.782Z,18.69
2022-09-14T09:24:53.887Z,18.74
2022-09-14T09:27:20.741Z,18.66
2022-09-14T09:29:48.089Z,18.91
2022-09-14T09:32:19.352Z,19.10
2022-09-14T09:34:46.009Z,18.86
2022-09-14T09:37:18.003Z,18.94
2022-09-14T09:39:44.856Z,18.95
2022-09-14T09:42:21.506Z,18.86
2022-09-14T09:44:56.933Z,19.24
2022-09-14T09:47:30.702Z,18.70
2022-09-14T09:50:00.142Z,19.08
2022-09-14T09:52:27.034Z,18.74
2022-09-14T09:54:55.692Z,18.59
2022-09-14T09:57:34.283Z,19.00
2022-09-14T10:00:22.383Z,19.16
2022-09-14T10:02:50.320Z,19.19
2022-09-14T10:05:16.637Z,19.21
2022-09-14T10:07:55.923Z,18.72
2022-09-14T10:10:44.950Z,18.87
2022-09-14T10:13:28.938Z,18.65
2022-09-14T10:16:07.199Z,18.78
2022-09-14T10:18:33.944Z,18.91
2022-09-14T10:21:00.239Z,19.25
2022-09-14T10:23:29.082Z,19.25
2022-09-14T10:26:10.625Z,19.31
2022-09-14T10:28:38.467Z,19.30
2022-09-14T10:31:26.993Z,19.18
2022-09-14T10:33:58.044Z,19.13
2022-09-14T10:36:32.945Z,18.84
2022-09-14T10:39:21.123Z,19.14
2022-09-14T10:42:10.084Z,18.73
2022-09-14T10:44:51.060Z,19.05
2022-09-14T10:47:32.574Z,19.00
2022-09-14T10:50:20.733Z,19.01
2022-09-14T10:53:19.806Z,18.60
2022-09-14T10:56:01.961Z,18.90
2022-09-14T10:58:50.533Z,18.70
2022-09-14T11:01:41.721Z,18.71
2022-09-14T11:04:35.005Z,18.56
2022-09-14T11:07:22.518Z,18.46
2022-09-14T11:10:13.323Z,18.79
2022-09-14T11:13:04.333Z,18.67
2022-09-14T11:15:41.798Z,18.31
2022-09-14T11:18:39.351Z,18.36
2022-09-14T11:21:21.092Z,18.27
2022-09-14T11:24:16.733Z,18.57
2022-09-14T11:26:57.721Z,18.27
2022-09-14T11:29:35.923Z,18.34
2022-09-14T11:32:33.389Z,18.75
2022-09-14T11:35:18.223Z,18.13
2022-09-14T11:37:56.042Z,18.52
2022-09-14T11:40:55.641Z,18.40
2022-09-14T11:43:29.382Z,18.12
2022-09-14T11:46:11.561Z,17.94
2022-09-14T11:48:44.497Z,17.83
2022-09-14T11:51:19.309Z,18.10
2022-09-14T11:53:46.700Z,18.32
2022-09-14T11:56:27.842Z,18.45
2022-09-14T11:58:59.720Z,18.25
2022-09-14T12:01:31.021Z,18.38
2022-09-14T12:03:59.619Z,18.44
2022-09-14T12:06:44.703Z,17.86
2022-09-14T12:09:14.107Z,18.33
2022-09-14T12:11:42.143Z,18.20
2022-09-14T12:14:23.801Z,18.21
2022-09-14T12:17:38.310Z,18.20
2022-09-14T12:20:38.119Z,18.25
2022-09-14T12:23:07.689Z,18.20
2022-09-14T12:25:34.771Z,17.97
2022-09-14T12:28:01.291Z,17.92
2022-09-14T12:30:41.303Z,17.93
2022-09-14T12:33:35.674Z,17.94
2022-09-14T12:36:06.185Z,17.91
2022-09-14T12:38:55.173Z,17.86
2022-09-14T12:41:21.414Z,17.93
2022-09-14T12:43:51.457Z,17.97
2022-09-14T12:46:21.234Z,17.99
2022-09-14T12:48:47.804Z,18.05
2022-09-14T12:51:36.545Z,18.08
2022-09-14T12:54:08.984Z,18.05
2022-09-14T12:57:09.620Z,18.08
2022-09-14T13:00:08.536Z,17.93
2022-09-14T13:02:43.517Z,17.86
2022-09-14T13:05:16.952Z,17.69
2022-09-14T13:07:44.329Z,17.85
2022-09-14T13:10:22.668Z,17.92
2022-09-14T13:12:50.587Z,17.93
2022-09-14T13:15:33.559Z,17.93
2022-09-14T13:18:03.729Z,17.94
2022-09-14T13:20:32.933Z,17.94
2022-09-14T13:22:59.626Z,17.95
2022-09-14T13:25:37.914Z,18.02
2022-09-14T13:28:13.900Z,18.07
2022-09-14T13:30:43.166Z,17.97
2022-09-14T13:33:17.715Z,18.06
2022-09-14T13:35:53.201Z,18.00
2022-09-14T13:38:30.578Z,18.11
2022-09-14T13:41:06.695Z,18.19
2022-09-14T13:43:33.839Z,18.15
2022-09-14T13:46:00.975Z,18.19
2022-09-14T13:48:27.583Z,18.20
2022-09-14T13:50:54.074Z,18.17
2022-09-14T13:53:57.750Z,18.19
2022-09-14T13:56:26.790Z,18.27
2022-09-14T13:59:08.103Z,18.26
2022-09-14T14:01:42.948Z,18.19
2022-09-14T14:04:37.324Z,18.21
2022-09-14T14:07:12.826Z,18.15
2022-09-14T14:09:50.650Z,18.17
2022-09-14T14:12:29.533Z,18.25
2022-09-14T14:15:03.592Z,18.29
2022-09-14T14:17:29.896Z,18.28
2022-09-14T14:19:59.343Z,17.99
2022-09-14T14:22:29.317Z,18.24
2022-09-14T14:25:12.737Z,18.42
2022-09-14T14:27:46.021Z,18.63
2022-09-14T14:30:22.141Z,18.69
2022-09-14T14:32:53.665Z,18.82
2022-09-14T14:35:23.296Z,18.97
2022-09-14T14:37:50.617Z,19.01
2022-09-14T14:40:18.461Z,19.07
2022-09-14T14:42:45.947Z,19.16
2022-09-14T14:45:19.117Z,19.19
2022-09-14T14:47:46.834Z,19.21
2022-09-14T14:50:18.560Z,19.08
2022-09-14T14:52:44.975Z,19.05
2022-09-14T14:55:11.565Z,19.03
2022-09-14T14:57:38.860Z,18.94
2022-09-14T15:00:12.973Z,18.56
2022-09-14T15:02:39.308Z,19.10
2022-09-14T15:05:06.142Z,19.01
2022-09-14T15:07:37.084Z,19.23
2022-09-14T15:10:05.687Z,19.05
2022-09-14T15:12:32.986Z,19.06
2022-09-14T15:15:00.356Z,19.01
2022-09-14T15:17:26.787Z,19.03
2022-09-14T15:19:53.160Z,19.18
2022-09-14T15:22:19.721Z,19.14
2022-09-14T15:24:46.073Z,18.77
2022-09-14T15:27:12.571Z,19.02
2022-09-14T15:29:39.140Z,18.94
2022-09-14T15:32:05.586Z,19.06
2022-09-14T15:34:32.052Z,19.02
2022-09-14T15:36:58.876Z,18.89
2022-09-14T15:39:27.410Z,18.96
2022-09-14T15:41:54.533Z,19.04
2022-09-14T15:44:21.223Z,18.93
2022-09-14T15:46:48.186Z,18.91
2022-09-14T15:49:21.083Z,19.03
2022-09-14T15:51:52.800Z,19.06
2022-09-14T15:54:23.015Z,19.04
2022-09-14T15:56:51.207Z,19.03
2022-09-14T15:59:19.284Z,18.69
2022-09-14T16:01:46.632Z,18.73
2022-09-14T16:04:13.343Z,18.71
2022-09-14T16:06:40.242Z,18.93
2022-09-14T16:09:09.232Z,18.64
2022-09-14T16:11:36.770Z,19.13
2022-09-14T16:14:05.448Z,18.67
2022-09-14T16:16:33.464Z,18.42
2022-09-14T16:19:14.912Z,18.92
2022-09-14T16:21:42.390Z,18.82
2022-09-14T16:24:13.426Z,18.80
2022-09-14T16:26:40.657Z,18.77
2022-09-14T16:29:08.451Z,18.68
2022-09-14T16:31:37.074Z,18.86
2022-09-14T16:34:24.415Z,18.61
2022-09-14T16:36:51.371Z,18.74
2022-09-14T16:39:20.300Z,18.42
2022-09-14T16:41:46.636Z,18.70
2022-09-14T16:44:16.431Z,18.67
2022-09-14T16:46:43.365Z,18.54
2022-09-14T16:49:10.328Z,18.20
2022-09-14T16:51:37.080Z,18.39
2022-09-14T16:54:04.450Z,18.51
2022-09-14T16:56:33.383Z,18.41
2022-09-14T16:59:00.907Z,18.66
2022-09-14T17:01:32.978Z,18.77
2022-09-14T17:04:03.780Z,18.88
2022-09-14T17:06:31.919Z,18.99
2022-09-14T17:09:04.631Z,18.98
2022-09-14T17:11:32.981Z,19.02
2022-09-14T17:13:59.806Z,18.86
2022-09-14T17:16:28.094Z,18.87
2022-09-14T17:18:58.946Z,18.80
2022-09-14T17:21:36.965Z,18.71
2022-09-14T17:24:07.271Z,18.25
2022-09-14T17:26:35.601Z,18.40
2022-09-14T17:29:03.799Z,18.69
2022-09-14T17:31:33.689Z,18.55
2022-09-14T17:34:04.504Z,18.47
2022-09-14T17:36:31.126Z,17.94
2022-09-14T17:38:59.417Z,18.55
2022-09-14T17:41:30.362Z,18.50
2022-09-14T17:43:59.072Z,18.52
2022-09-14T17:46:26.118Z,18.57
2022-09-14T17:48:52.890Z,18.45
2022-09-14T17:51:22.846Z,18.49
2022-09-14T17:53:51.891Z,18.56
2022-09-14T17:56:21.031Z,18.56
2022-09-14T17:58:48.921Z,18.68
2022-09-14T18:01:21.165Z,18.68
2022-09-14T18:03:57.571Z,18.74
2022-09-14T18:06:27.992Z,18.76
2022-09-14T18:08:56.548Z,18.80
2022-09-14T18:11:23.803Z,18.52
2022-09-14T18:13:50.612Z,18.63
2022-09-14T18:16:19.393Z,18.74
2022-09-14T18:18:48.074Z,18.78
2022-09-14T18:21:16.736Z,18.78
2022-09-14T18:23:43.741Z,18.41
2022-09-14T18:26:10.176Z,18.78
2022-09-14T18:28:36.711Z,18.76
2022-09-14T18:31:07.871Z,18.63
2022-09-14T18:33:35.212Z,18.66
2022-09-14T18:36:02.234Z,18.69
2022-09-14T18:38:29.946Z,18.62
2022-09-14T18:41:03.127Z,18.33
2022-09-14T18:43:29.590Z,18.46
2022-09-14T18:45:55.901Z,18.55
2022-09-14T18:48:22.268Z,18.46
2022-09-14T18:50:48.769Z,18.51
2022-09-14T18:53:15.442Z,18.38
2022-09-14T18:55:41.817Z,18.49
2022-09-14T18:58:08.392Z,18.05
2022-09-14T19:00:35.187Z,18.43
2022-09-14T19:03:01.518Z,17.98
2022-09-14T19:05:29.879Z,18.39
2022-09-14T19:07:56.445Z,18.38
2022-09-14T19:10:23.081Z,18.42
2022-09-14T19:12:49.630Z,18.38
2022-09-14T19:15:16.068Z,18.49
2022-09-14T19:17:42.391Z,18.52
2022-09-14T19:20:10.850Z,18.36
2022-09-14T19:22:37.259Z,18.30
2022-09-14T19:25:04.056Z,18.53
2022-09-14T19:27:30.441Z,18.41
2022-09-14T19:29:56.845Z,18.46
2022-09-14T19:32:23.254Z,18.48
2022-09-14T19:34:49.887Z,18.49
2022-09-14T19:37:16.429Z,18.34
2022-09-14T19:39:42.886Z,18.44
2022-09-14T19:42:09.240Z,18.20
2022-09-14T19:44:35.670Z,18.41
2022-09-14T19:47:02.096Z,18.47
2022-09-14T19:49:28.528Z,18.44
2022-09-14T19:51:55.030Z,18.52
2022-09-14T19:54:22.456Z,17.89
2022-09-14T19:56:48.900Z,18.48
2022-09-14T19:59:16.539Z,18.05
2022-09-14T20:01:44.254Z,18.51
2022-09-14T20:04:11.745Z,18.53
2022-09-14T20:06:42.417Z,18.52
2022-09-14T20:09:13.515Z,18.05
2022-09-14T20:11:41.459Z,18.53
2022-09-14T20:14:11.998Z,18.55
2022-09-14T20:16:44.606Z,18.53
2022-09-14T20:19:16.468Z,17.89
2022-09-14T20:21:44.530Z,18.48
2022-09-14T20:24:17.021Z,18.34
2022-09-14T20:26:45.841Z,18.21
2022-09-14T20:29:12.820Z,18.37
2022-09-14T20:31:39.269Z,18.33
2022-09-14T20:34:05.710Z,18.18
2022-09-14T20:36:32.548Z,18.13
2022-09-14T20:38:59.654Z,18.33
2022-09-14T20:41:30.105Z,18.22
2022-09-14T20:43:56.539Z,18.16
2022-09-14T20:46:28.052Z,17.95
2022-09-14T20:48:57.615Z,18.19
2022-09-14T20:51:25.049Z,18.25
2022-09-14T20:53:52.120Z,17.76
2022-09-14T20:56:24.265Z,18.25
2022-09-14T20:58:54.626Z,18.14
2022-09-14T21:01:22.827Z,18.27
2022-09-14T21:03:50.262Z,18.18
2022-09-14T21:06:20.107Z,18.29
2022-09-14T21:08:46.867Z,18.34
2022-09-14T21:11:19.511Z,18.30
2022-09-14T21:13:49.235Z,18.31
2022-09-14T21:16:19.452Z,18.22
2022-09-14T21:18:48.186Z,17.83
2022-09-14T21:21:17.027Z,18.23
2022-09-14T21:23:43.855Z,17.77
2022-09-14T21:26:11.999Z,18.15
2022-09-14T21:28:40.029Z,18.19
2022-09-14T21:31:13.059Z,17.68
2022-09-14T21:33:41.544Z,18.05
2022-09-14T21:36:14.528Z,18.10
2022-09-14T21:38:41.185Z,18.06
2022-09-14T21:41:09.617Z,17.63
2022-09-14T21:43:38.285Z,18.02
2022-09-14T21:46:05.643Z,17.89
2022-09-14T21:48:32.640Z,18.00
2022-09-14T21:51:17.011Z,17.92
2022-09-14T21:53:55.242Z,18.06
2022-09-14T21:56:25.829Z,17.97
2022-09-14T21:58:54.553Z,18.05
2022-09-14T22:01:21.705Z,17.91
2022-09-14T22:03:51.388Z,18.01
2022-09-14T22:06:22.489Z,17.81
2022-09-14T22:08:50.328Z,17.56
2022-09-14T22:11:22.907Z,17.73
2022-09-14T22:14:05.583Z,18.15
2022-09-14T22:16:34.299Z,18.23
2022-09-14T22:19:03.980Z,18.22
2022-09-14T22:21:31.664Z,18.18
2022-09-14T22:24:00.319Z,18.18
2022-09-14T22:26:29.032Z,17.83
2022-09-14T22:28:57.261Z,18.19
2022-09-14T22:31:26.928Z,17.80
2022-09-14T22:33:59.480Z,17.78
2022-09-14T22:36:26.809Z,18.10
2022-09-14T22:38:58.584Z,18.22
2022-09-14T22:41:26.404Z,18.24
2022-09-14T22:43:53.256Z,18.03
2022-09-14T22:46:20.342Z,18.05
2022-09-14T22:48:46.874Z,18.08
2022-09-14T22:51:21.607Z,18.15
2022-09-14T22:53:48.056Z,17.98
2022-09-14T22:56:19.602Z,18.10
2022-09-14T22:58:46.912Z,18.02
2022-09-14T23:01:18.275Z,18.09
2022-09-14T23:03:45.142Z,18.02
2022-09-14T23:06:11.961Z,17.63
2022-09-14T23:08:39.581Z,18.16
2022-09-14T23:11:10.049Z,17.98
2022-09-14T23:13:41.169Z,18.11
2022-09-14T23:16:15.533Z,17.44
2022-09-14T23:18:42.508Z,18.04
2022-09-14T23:21:09.659Z,18.08
2022-09-14T23:23:38.024Z,18.01
2022-09-14T23:26:11.752Z,17.94
2022-09-14T23:28:38.651Z,17.93
2022-09-14T23:31:05.967Z,17.96
2022-09-14T23:33:32.823Z,17.70
2022-09-14T23:35:59.229Z,17.97
2022-09-14T23:38:25.837Z,17.42
2022-09-14T23:40:52.349Z,17.97
2022-09-14T23:43:19.556Z,18.02
2022-09-14T23:45:47.272Z,17.93
2022-09-14T23:48:14.892Z,18.04
2022-09-14T23:50:41.247Z,17.74
2022-09-14T23:53:08.294Z,17.95
2022-09-14T23:55:34.710Z,17.99
2022-09-14T23:58:01.066Z,17.70
